createdAt,value
2019-01-05T00:02:03.336Z,7.07
2019-01-05T00:05:56.646Z,7.28
2019-01-05T00:09:41.717Z,7.38
2019-01-05T00:13:35.491Z,6.89
2019-01-05T00:17:26.331Z,6.97
2019-01-05T00:21:09.825Z,6.88
2019-01-05T00:24:53.324Z,7.33
2019-01-05T00:28:47.852Z,7.08
2019-01-05T00:32:39.093Z,7.01
2019-01-05T00:36:35.868Z,6.95
2019-01-05T00:40:22.440Z,6.93
2019-01-05T00:44:15.124Z,6.92
2019-01-05T00:48:00.980Z,6.84
2019-01-05T00:51:45.890Z,7.03
2019-01-05T00:55:30.895Z,6.96
2019-01-05T00:59:31.108Z,7.24
2019-01-05T01:03:15.891Z,7.02
2019-01-05T01:06:59.519Z,7.00
2019-01-05T01:10:51.610Z,7.26
2019-01-05T01:14:35.312Z,7.18
2019-01-05T01:18:38.876Z,7.52
2019-01-05T01:22:22.485Z,7.05
2019-01-05T01:26:07.410Z,6.86
2019-01-05T01:29:50.420Z,6.94
2019-01-05T01:33:33.958Z,7.02
2019-01-05T01:37:24.919Z,7.10
2019-01-05T01:41:07.961Z,6.90
2019-01-05T01:45:04.494Z,7.31
2019-01-05T01:48:58.092Z,7.04
2019-01-05T01:52:42.647Z,6.99
2019-01-05T01:56:43.539Z,7.21
2019-01-05T02:00:33.310Z,6.85
2019-01-05T02:04:18.131Z,7.05
2019-01-05T02:08:14.538Z,7.33
2019-01-05T02:12:20.333Z,7.51
2019-01-05T02:16:10.149Z,7.10
2019-01-05T02:20:54.971Z,7.13
2019-01-05T02:25:36.866Z,6.94
2019-01-05T02:30:35.174Z,7.07
2019-01-05T02:35:36.868Z,7.58
2019-01-05T02:40:08.802Z,7.17
2019-01-05T02:44:37.455Z,7.48
2019-01-05T02:49:11.904Z,7.40
2019-01-05T02:53:48.560Z,7.13
2019-01-05T02:59:06.460Z,7.24
2019-01-05T03:03:42.002Z,7.48
2019-01-05T03:08:41.810Z,7.30
2019-01-05T03:13:41.079Z,7.53
2019-01-05T03:18:53.486Z,7.62
2019-01-05T03:23:23.141Z,7.53
2019-01-05T03:28:10.689Z,7.64
2019-01-05T03:32:46.285Z,7.84
2019-01-05T03:37:42.197Z,7.62
2019-01-05T03:42:43.231Z,7.90
2019-01-05T03:47:56.807Z,7.86
2019-01-05T03:52:28.079Z,7.91
2019-01-05T03:57:17.464Z,7.83
2019-01-05T04:02:14.736Z,7.82
2019-01-05T04:06:53.235Z,7.90
2019-01-05T04:11:31.279Z,7.90
2019-01-05T04:16:14.530Z,7.90
2019-01-05T04:21:00.887Z,7.84
2019-01-05T04:25:51.098Z,8.05
2019-01-05T04:30:41.621Z,7.75
2019-01-05T04:35:37.527Z,7.95
2019-01-05T04:40:08.464Z,7.98
2019-01-05T04:45:00.225Z,8.06
2019-01-05T04:50:14.073Z,8.10
2019-01-05T04:55:00.539Z,8.10
2019-01-05T05:00:08.624Z,8.15
2019-01-05T05:04:37.549Z,8.27
2019-01-05T05:09:43.881Z,8.36
2019-01-05T05:14:45.048Z,8.37
2019-01-05T05:19:47.672Z,8.22
2019-01-05T05:24:28.230Z,8.48
2019-01-05T05:29:14.488Z,8.53
2019-01-05T05:33:44.003Z,8.49
2019-01-05T05:38:20.024Z,8.63
2019-01-05T05:43:16.544Z,8.60
2019-01-05T05:48:29.414Z,8.72
2019-01-05T05:53:19.312Z,8.66
2019-01-05T05:57:49.420Z,8.80
2019-01-05T06:02:48.810Z,8.87
2019-01-05T06:07:41.916Z,8.67
2019-01-05T06:12:20.526Z,8.94
2019-01-05T06:16:47.609Z,8.73
2019-01-05T06:21:46.579Z,8.84
2019-01-05T06:26:52.891Z,8.90
2019-01-05T06:31:42.458Z,9.04
2019-01-05T06:36:24.282Z,8.86
2019-01-05T06:40:59.732Z,8.70
2019-01-05T06:46:15.638Z,8.88
2019-01-05T06:51:16.322Z,8.99
2019-01-05T06:56:15.933Z,8.81
2019-01-05T07:01:36.048Z,9.03
2019-01-05T07:06:32.967Z,8.94
2019-01-05T07:11:10.281Z,8.88
2019-01-05T07:15:53.079Z,8.74
2019-01-05T07:20:44.427Z,8.77
2019-01-05T07:25:49.511Z,8.79
2019-01-05T07:30:34.611Z,8.69
2019-01-05T07:35:13.610Z,8.90
2019-01-05T07:40:15.334Z,8.79
2019-01-05T07:45:20.160Z,8.94
2019-01-05T07:50:00.895Z,8.77
2019-01-05T07:54:53.939Z,8.59
2019-01-05T07:59:20.240Z,8.82
2019-01-05T08:04:22.915Z,9.11
2019-01-05T08:18:34.096Z,8.92
2019-01-05T08:23:37.725Z,8.73
2019-01-05T08:28:19.793Z,8.63
2019-01-05T08:33:19.768Z,8.95
2019-01-05T08:37:55.934Z,8.88
2019-01-05T08:42:42.349Z,9.25
2019-01-05T08:47:40.373Z,9.02
2019-01-05T08:52:50.752Z,8.85
2019-01-05T08:57:46.216Z,8.89
2019-01-05T09:02:41.260Z,9.16
2019-01-05T09:07:23.014Z,8.98
2019-01-05T09:12:23.699Z,9.18
2019-01-05T09:17:07.595Z,9.22
2019-01-05T09:21:47.591Z,9.03
2019-01-05T09:26:25.059Z,9.15
2019-01-05T09:31:20.477Z,8.93
2019-01-05T09:36:08.550Z,8.82
2019-01-05T09:40:39.497Z,9.01
2019-01-05T09:45:32.594Z,9.25
2019-01-05T09:50:29.586Z,8.85
2019-01-05T09:55:21.009Z,9.12
2019-01-05T10:00:20.406Z,9.20
2019-01-05T10:05:11.309Z,9.35
2019-01-05T10:09:29.115Z,9.33
2019-01-05T10:14:10.961Z,9.32
2019-01-05T10:18:49.807Z,9.07
2019-01-05T10:23:35.488Z,9.37
2019-01-05T10:27:56.003Z,9.40
2019-01-05T10:32:29.463Z,9.18
2019-01-05T10:37:11.324Z,9.36
2019-01-05T10:42:01.612Z,9.23
2019-01-05T10:46:57.798Z,9.39
2019-01-05T10:51:43.341Z,9.03
2019-01-05T10:56:43.281Z,8.68
2019-01-05T11:01:41.629Z,9.11
2019-01-05T11:06:31.763Z,9.20
2019-01-05T11:11:21.232Z,9.33
2019-01-05T11:16:14.200Z,9.52
2019-01-05T11:20:35.721Z,9.38
2019-01-05T11:25:39.825Z,9.32
2019-01-05T11:30:31.576Z,9.56
2019-01-05T11:35:32.662Z,9.42
2019-01-05T11:40:02.266Z,9.44
2019-01-05T11:44:54.164Z,9.56
2019-01-05T11:49:22.825Z,9.76
2019-01-05T11:54:14.847Z,9.69
2019-01-05T11:58:55.213Z,9.67
2019-01-05T12:03:46.215Z,9.40
2019-01-05T12:08:37.248Z,9.35
2019-01-05T12:13:10.666Z,9.84
2019-01-05T12:17:47.885Z,9.60
2019-01-05T12:22:57.927Z,9.53
2019-01-05T12:27:57.118Z,9.44
2019-01-05T12:32:53.573Z,9.53
2019-01-05T12:37:32.818Z,9.55
2019-01-05T12:42:32.361Z,9.42
2019-01-05T12:57:02.833Z,9.76
2019-01-05T13:02:01.738Z,9.80
2019-01-05T13:06:44.274Z,9.50
2019-01-05T13:11:30.369Z,9.76
2019-01-05T13:16:04.090Z,9.70
2019-01-05T13:20:44.851Z,9.38
2019-01-05T13:25:25.808Z,9.53
2019-01-05T13:30:03.783Z,9.58
2019-01-05T13:34:41.132Z,10.05
2019-01-05T13:39:35.660Z,9.71
2019-01-05T13:44:25.220Z,9.54
2019-01-05T13:49:19.830Z,9.61
2019-01-05T13:53:32.139Z,9.35
2019-01-05T13:57:20.643Z,9.31
2019-01-05T14:01:14.269Z,9.41
2019-01-05T14:05:07.870Z,9.42
2019-01-05T14:08:50.874Z,9.70
2019-01-05T14:12:38.111Z,9.46
2019-01-05T14:16:29.260Z,9.27
2019-01-05T14:20:12.386Z,9.33
2019-01-05T14:23:55.780Z,9.62
2019-01-05T14:27:56.688Z,8.99
2019-01-05T14:31:48.413Z,9.30
2019-01-05T14:35:51.015Z,9.30
2019-01-05T14:39:44.596Z,9.31
2019-01-05T14:43:29.672Z,9.24
2019-01-05T14:47:14.116Z,9.42
2019-01-05T14:50:56.919Z,9.21
2019-01-05T14:54:53.570Z,9.38
2019-01-05T14:58:36.758Z,9.11
2019-01-05T15:02:27.590Z,9.24
2019-01-05T15:06:12.058Z,9.30
2019-01-05T15:09:55.189Z,9.11
2019-01-05T15:13:38.248Z,9.08
2019-01-05T15:17:21.159Z,8.88
2019-01-05T15:21:04.263Z,9.09
2019-01-05T15:25:06.937Z,8.98
2019-01-05T15:28:57.222Z,8.97
2019-01-05T15:32:41.682Z,8.81
2019-01-05T15:36:32.195Z,8.95
2019-01-05T15:40:15.811Z,8.73
2019-01-05T15:44:09.081Z,8.90
2019-01-05T15:48:05.245Z,8.76
2019-01-05T15:51:55.494Z,8.74
2019-01-05T15:55:40.008Z,8.69
2019-01-05T15:59:24.442Z,8.82
2019-01-05T16:03:11.905Z,8.66
2019-01-05T16:06:56.365Z,8.50
2019-01-05T16:10:41.170Z,8.45
2019-01-05T16:14:34.761Z,8.80
2019-01-05T16:18:17.945Z,8.74
2019-01-05T16:22:11.374Z,8.75
2019-01-05T16:25:54.496Z,8.83
2019-01-05T16:29:37.485Z,8.56
2019-01-05T16:33:21.463Z,8.65
2019-01-05T16:37:17.696Z,8.69
2019-01-05T16:41:02.202Z,8.37
2019-01-05T16:44:58.909Z,8.42
2019-01-05T16:48:46.379Z,8.50
2019-01-05T16:52:45.822Z,8.40
2019-01-05T16:56:28.723Z,8.46
2019-01-05T17:00:21.969Z,8.62
2019-01-05T17:04:05.264Z,8.43
2019-01-05T17:08:07.803Z,8.78
2019-01-05T17:11:47.916Z,8.69
2019-01-05T17:15:38.512Z,8.49
2019-01-05T17:19:21.388Z,8.60
2019-01-05T17:23:04.796Z,8.29
2019-01-05T17:26:47.766Z,8.40
2019-01-05T17:30:42.361Z,8.39
2019-01-05T17:34:23.205Z,8.49
2019-01-05T17:38:10.606Z,8.55
2019-01-05T17:41:53.611Z,8.24
2019-01-05T17:45:38.112Z,8.27
2019-01-05T17:49:37.716Z,8.60
2019-01-05T17:53:33.209Z,8.60
2019-01-05T17:57:18.003Z,8.23
2019-01-05T18:01:17.379Z,8.59
2019-01-05T18:05:00.881Z,8.46
2019-01-05T18:08:48.144Z,8.37
2019-01-05T18:12:30.971Z,8.34
2019-01-05T18:16:18.292Z,8.31
2019-01-05T18:20:05.768Z,8.16
2019-01-05T18:23:48.593Z,8.26
2019-01-05T18:27:33.363Z,8.54
2019-01-05T18:31:20.612Z,8.10
2019-01-05T18:35:05.035Z,8.33
2019-01-05T18:38:43.395Z,8.46
2019-01-05T18:42:38.705Z,8.47
2019-01-05T18:46:38.381Z,8.33
2019-01-05T18:50:17.189Z,8.31
2019-01-05T18:54:00.998Z,8.36
2019-01-05T18:57:57.303Z,8.50
2019-01-05T19:01:53.647Z,8.19
2019-01-05T19:05:36.898Z,8.19
2019-01-05T19:09:20.492Z,8.46
2019-01-05T19:13:03.450Z,8.41
2019-01-05T19:16:53.894Z,8.26
2019-01-05T19:20:47.213Z,8.24
2019-01-05T19:24:41.473Z,8.53
2019-01-05T19:28:30.224Z,8.37
2019-01-05T19:32:25.276Z,8.58
2019-01-05T19:36:21.702Z,8.75
2019-01-05T19:40:05.174Z,8.31
2019-01-05T19:43:49.974Z,8.49
2019-01-05T19:47:33.131Z,8.59
2019-01-05T19:51:25.655Z,8.43
2019-01-05T19:55:13.604Z,8.68
2019-01-05T19:58:56.450Z,8.69
2019-01-05T20:02:40.965Z,8.30
2019-01-05T20:06:23.168Z,8.32
2019-01-05T20:10:07.631Z,8.14
2019-01-05T20:13:58.177Z,8.44
2019-01-05T20:17:41.307Z,8.56
2019-01-05T20:21:25.751Z,8.45
2019-01-05T20:25:22.304Z,8.32
2019-01-05T20:29:12.663Z,8.39
2019-01-05T20:33:06.312Z,8.23
2019-01-05T20:36:49.190Z,8.43
2019-01-05T20:40:26.362Z,8.60
2019-01-05T20:44:16.839Z,8.48
2019-01-05T20:48:01.256Z,8.61
2019-01-05T20:51:40.595Z,8.38
2019-01-05T20:55:28.317Z,8.40
2019-01-05T20:59:11.517Z,8.41
2019-01-05T21:02:54.357Z,8.23
2019-01-05T21:06:47.323Z,8.29
2019-01-05T21:10:30.764Z,8.32
2019-01-05T21:14:30.286Z,8.34
2019-01-05T21:18:13.588Z,8.47
2019-01-05T21:21:59.730Z,8.49
2019-01-05T21:25:45.195Z,8.33
2019-01-05T21:29:28.248Z,8.29
2019-01-05T21:33:12.741Z,8.40
2019-01-05T21:36:56.182Z,8.28
2019-01-05T21:40:52.572Z,8.33
2019-01-05T21:44:37.118Z,8.42
2019-01-05T21:48:20.103Z,8.07
2019-01-05T21:55:41.288Z,8.25
2019-01-05T21:59:34.742Z,8.22
2019-01-05T22:03:22.670Z,8.05
2019-01-05T22:07:07.071Z,8.16
2019-01-05T22:11:01.292Z,8.48
2019-01-05T22:14:50.740Z,8.02
2019-01-05T22:18:33.518Z,8.18
2019-01-05T22:22:24.327Z,8.13
2019-01-05T22:26:13.322Z,8.07
2019-01-05T22:29:56.477Z,7.92
2019-01-05T22:33:40.170Z,8.40
2019-01-05T22:37:43.238Z,8.18
2019-01-05T22:41:28.930Z,8.22
2019-01-05T22:45:20.656Z,8.21
2019-01-05T22:54:31.717Z,8.05
2019-01-05T22:58:14.970Z,8.21
2019-01-05T23:01:57.989Z,8.02
2019-01-05T23:05:40.936Z,8.19
2019-01-05T23:09:35.029Z,7.90
2019-01-05T23:13:22.295Z,7.99
2019-01-05T23:17:15.507Z,8.29
2019-01-05T23:20:58.634Z,8.40
2019-01-05T23:24:45.825Z,8.20
2019-01-05T23:28:36.058Z,8.07
2019-01-05T23:32:20.772Z,8.05
2019-01-05T23:36:06.083Z,8.32
2019-01-05T23:40:08.513Z,8.21
2019-01-05T23:43:51.695Z,8.52
2019-01-05T23:47:39.191Z,8.21
2019-01-05T23:51:41.970Z,8.36
2019-01-05T23:55:32.323Z,8.45
2019-01-05T23:59:19.778Z,8.55
